createdAt,value
2022-12-08T00:01:11.091Z,66.71
2022-12-08T00:03:38.616Z,66.85
2022-12-08T00:06:07.926Z,65.52
2022-12-08T00:08:34.722Z,65.54
2022-12-08T00:11:01.362Z,66.46
2022-12-08T00:13:28.059Z,65.49
2022-12-08T00:16:00.913Z,66.06
2022-12-08T00:18:27.615Z,64.14
2022-12-08T00:20:58.856Z,62.32
2022-12-08T00:23:25.996Z,62.84
2022-12-08T00:25:53.124Z,64.10
2022-12-08T00:28:20.032Z,63.58
2022-12-08T00:30:46.808Z,63.14
2022-12-08T00:33:13.475Z,62.42
2022-12-08T00:35:43.267Z,62.23
2022-12-08T00:38:10.129Z,62.98
2022-12-08T00:40:36.803Z,62.21
2022-12-08T00:43:03.444Z,60.90
2022-12-08T00:45:30.210Z,63.53
2022-12-08T00:47:56.890Z,63.99
2022-12-08T00:50:23.567Z,62.80
2022-12-08T00:52:50.716Z,63.03
2022-12-08T00:55:17.531Z,63.55
2022-12-08T00:57:44.653Z,63.11
2022-12-08T01:00:11.893Z,63.92
2022-12-08T01:02:38.968Z,63.42
2022-12-08T01:05:06.004Z,61.15
2022-12-08T01:07:32.655Z,64.53
2022-12-08T01:09:59.674Z,62.45
2022-12-08T01:12:28.501Z,62.51
2022-12-08T01:14:59.207Z,63.38
2022-12-08T01:17:28.869Z,62.96
2022-12-08T01:19:55.476Z,63.16
2022-12-08T01:22:22.081Z,62.13
2022-12-08T01:24:51.743Z,60.34
2022-12-08T01:27:18.361Z,61.81
2022-12-08T01:29:44.988Z,61.05
2022-12-08T01:32:11.697Z,59.18
2022-12-08T01:34:38.448Z,59.00
2022-12-08T01:37:05.358Z,59.64
2022-12-08T01:39:31.997Z,58.34
2022-12-08T01:41:58.655Z,56.93
2022-12-08T01:44:25.256Z,56.94
2022-12-08T01:46:54.618Z,58.59
2022-12-08T01:49:32.948Z,58.35
2022-12-08T01:52:13.656Z,58.51
2022-12-08T01:54:49.210Z,58.00
2022-12-08T01:57:27.640Z,58.26
2022-12-08T02:00:04.303Z,58.55
2022-12-08T02:02:44.187Z,57.49
2022-12-08T02:05:11.566Z,56.32
2022-12-08T02:07:38.265Z,56.19
2022-12-08T02:10:05.811Z,57.36
2022-12-08T02:12:33.186Z,56.81
2022-12-08T02:15:04.774Z,56.01
2022-12-08T02:18:12.809Z,55.14
2022-12-08T02:20:58.295Z,55.30
2022-12-08T02:23:51.599Z,54.62
2022-12-08T02:26:56.425Z,54.42
2022-12-08T02:29:32.159Z,54.77
2022-12-08T02:31:58.760Z,53.78
2022-12-08T02:34:27.990Z,55.51
2022-12-08T02:37:16.873Z,54.30
2022-12-08T02:40:23.038Z,54.48
2022-12-08T02:43:06.899Z,55.38
2022-12-08T02:45:41.501Z,57.16
2022-12-08T02:48:10.381Z,56.89
2022-12-08T02:50:37.146Z,59.58
2022-12-08T02:53:03.848Z,58.61
2022-12-08T02:55:59.938Z,58.35
2022-12-08T02:58:48.353Z,56.93
2022-12-08T03:01:59.095Z,56.27
2022-12-08T03:04:42.525Z,56.06
2022-12-08T03:07:09.270Z,56.77
2022-12-08T03:09:54.524Z,57.13
2022-12-08T03:12:59.789Z,57.07
2022-12-08T03:15:27.784Z,57.70
2022-12-08T03:17:58.465Z,57.81
2022-12-08T03:20:28.004Z,57.06
2022-12-08T03:22:59.797Z,56.59
2022-12-08T03:25:34.827Z,56.49
2022-12-08T03:28:01.620Z,56.39
2022-12-08T03:30:36.640Z,55.64
2022-12-08T03:33:29.988Z,58.46
2022-12-08T03:36:00.663Z,59.11
2022-12-08T03:38:43.651Z,57.89
2022-12-08T03:41:11.721Z,57.56
2022-12-08T03:43:38.375Z,56.96
2022-12-08T03:46:05.145Z,57.11
2022-12-08T03:48:31.888Z,57.16
2022-12-08T03:50:58.678Z,56.74
2022-12-08T03:53:27.705Z,57.06
2022-12-08T03:55:54.859Z,56.51
2022-12-08T03:58:21.540Z,56.85
2022-12-08T04:00:48.173Z,56.72
2022-12-08T04:03:14.915Z,55.71
2022-12-08T04:05:41.575Z,55.18
2022-12-08T04:08:08.255Z,55.53
2022-12-08T04:10:35.012Z,56.19
2022-12-08T04:13:18.519Z,58.57
2022-12-08T04:15:59.047Z,57.20
2022-12-08T04:18:25.878Z,57.32
2022-12-08T04:20:52.803Z,59.17
2022-12-08T04:23:19.499Z,58.76
2022-12-08T04:25:46.114Z,60.15
2022-12-08T04:28:12.830Z,58.21
2022-12-08T04:30:39.731Z,57.91
2022-12-08T04:33:06.374Z,58.79
2022-12-08T04:35:33.195Z,59.72
2022-12-08T04:37:59.884Z,57.99
2022-12-08T04:40:27.044Z,58.11
2022-12-08T04:42:53.952Z,57.83
2022-12-08T04:45:20.617Z,57.92
2022-12-08T04:47:47.304Z,57.52
2022-12-08T04:50:14.406Z,57.09
2022-12-08T04:52:41.063Z,57.08
2022-12-08T04:55:08.040Z,56.81
2022-12-08T04:57:35.168Z,56.92
2022-12-08T05:00:02.046Z,56.38
2022-12-08T05:02:29.295Z,56.20
2022-12-08T05:04:55.948Z,56.34
2022-12-08T05:07:22.583Z,55.87
2022-12-08T05:09:49.338Z,55.74
2022-12-08T05:12:16.015Z,55.22
2022-12-08T05:14:47.635Z,55.58
2022-12-08T05:17:18.080Z,55.87
2022-12-08T05:19:44.947Z,56.59
2022-12-08T05:22:11.747Z,58.37
2022-12-08T05:24:42.497Z,57.47
2022-12-08T05:27:12.427Z,59.43
2022-12-08T05:29:39.079Z,60.75
2022-12-08T05:32:06.137Z,62.86
2022-12-08T05:34:32.826Z,62.20
2022-12-08T05:36:59.509Z,61.29
2022-12-08T05:39:26.206Z,60.56
2022-12-08T05:41:52.829Z,59.00
2022-12-08T05:44:19.536Z,59.66
2022-12-08T05:46:46.757Z,58.55
2022-12-08T05:49:13.914Z,58.17
2022-12-08T05:51:40.932Z,57.71
2022-12-08T05:54:07.657Z,56.14
2022-12-08T05:56:34.343Z,55.79
2022-12-08T05:59:01.429Z,55.63
2022-12-08T06:01:31.888Z,54.98
2022-12-08T06:04:01.566Z,54.92
2022-12-08T06:06:29.040Z,55.20
2022-12-08T06:08:56.037Z,56.57
2022-12-08T06:11:31.359Z,57.13
2022-12-08T06:13:58.958Z,57.83
2022-12-08T06:16:27.183Z,59.19
2022-12-08T06:18:54.425Z,57.46
2022-12-08T06:21:21.203Z,57.57
2022-12-08T06:23:50.273Z,56.51
2022-12-08T06:26:18.182Z,56.69
2022-12-08T06:28:45.363Z,57.28
2022-12-08T06:31:24.992Z,60.01
2022-12-08T06:33:53.676Z,59.57
2022-12-08T06:36:24.731Z,57.77
2022-12-08T06:38:52.269Z,57.12
2022-12-08T06:41:19.245Z,58.79
2022-12-08T06:43:46.927Z,57.85
2022-12-08T06:46:16.856Z,57.63
2022-12-08T06:48:44.310Z,56.31
2022-12-08T06:51:17.259Z,55.51
2022-12-08T06:53:44.944Z,54.87
2022-12-08T06:56:12.730Z,55.26
2022-12-08T06:58:39.964Z,55.65
2022-12-08T07:01:12.970Z,55.72
2022-12-08T07:03:41.025Z,55.03
2022-12-08T07:06:07.969Z,55.11
2022-12-08T07:08:35.476Z,54.41
2022-12-08T07:11:18.022Z,54.28
2022-12-08T07:13:47.912Z,54.01
2022-12-08T07:16:14.709Z,53.48
2022-12-08T07:18:41.483Z,52.88
2022-12-08T07:21:11.124Z,54.38
2022-12-08T07:23:41.322Z,53.17
2022-12-08T07:26:11.625Z,53.38
2022-12-08T07:28:40.460Z,52.87
2022-12-08T07:31:15.797Z,52.53
2022-12-08T07:33:43.956Z,52.71
2022-12-08T07:36:12.327Z,53.03
2022-12-08T07:38:39.470Z,53.96
2022-12-08T07:41:06.201Z,54.24
2022-12-08T07:43:32.930Z,53.98
2022-12-08T07:45:59.967Z,53.69
2022-12-08T07:48:26.949Z,52.66
2022-12-08T07:51:01.228Z,53.73
2022-12-08T07:53:29.315Z,53.96
2022-12-08T07:55:56.711Z,54.24
2022-12-08T07:58:24.212Z,54.39
2022-12-08T08:00:51.617Z,55.04
2022-12-08T08:03:18.820Z,55.44
2022-12-08T08:05:45.684Z,54.54
2022-12-08T08:08:12.381Z,55.10
2022-12-08T08:10:40.445Z,55.10
2022-12-08T08:13:07.987Z,55.13
2022-12-08T08:15:34.997Z,54.21
2022-12-08T08:18:01.736Z,53.89
2022-12-08T08:20:30.912Z,55.03
2022-12-08T08:22:58.548Z,55.47
2022-12-08T08:25:25.207Z,55.21
2022-12-08T08:27:51.848Z,57.02
2022-12-08T08:30:20.965Z,56.24
2022-12-08T08:32:48.821Z,55.94
2022-12-08T08:35:15.699Z,56.60
2022-12-08T08:37:47.243Z,55.78
2022-12-08T08:40:15.832Z,55.73
2022-12-08T08:42:42.561Z,57.69
2022-12-08T08:45:09.514Z,55.88
2022-12-08T08:47:36.266Z,55.15
2022-12-08T08:50:03.794Z,54.59
2022-12-08T08:52:30.865Z,53.57
2022-12-08T08:54:57.527Z,53.56
2022-12-08T08:57:26.001Z,54.48
2022-12-08T08:59:53.904Z,54.18
2022-12-08T09:02:20.691Z,53.82
2022-12-08T09:04:47.438Z,54.18
2022-12-08T09:07:14.349Z,55.47
2022-12-08T09:09:41.164Z,54.94
2022-12-08T09:12:07.840Z,54.39
2022-12-08T09:14:34.794Z,54.66
2022-12-08T09:17:01.412Z,53.49
2022-12-08T09:19:28.101Z,51.63
2022-12-08T09:21:55.013Z,51.77
2022-12-08T09:24:22.023Z,51.96
2022-12-08T09:26:49.223Z,53.59
2022-12-08T09:29:17.747Z,53.68
2022-12-08T09:31:44.521Z,54.59
2022-12-08T09:34:12.870Z,55.75
2022-12-08T09:36:40.480Z,56.66
2022-12-08T09:39:07.534Z,54.49
2022-12-08T09:41:54.436Z,56.78
2022-12-08T09:44:39.714Z,56.47
2022-12-08T09:47:18.206Z,58.37
2022-12-08T09:49:54.203Z,58.22
2022-12-08T09:52:38.433Z,58.28
2022-12-08T09:55:20.028Z,56.42
2022-12-08T09:57:59.084Z,56.86
2022-12-08T10:00:25.925Z,56.73
2022-12-08T10:02:52.676Z,58.52
2022-12-08T10:05:21.586Z,58.53
2022-12-08T10:07:55.522Z,58.38
2022-12-08T10:10:31.934Z,57.60
2022-12-08T10:13:23.275Z,56.18
2022-12-08T10:16:06.150Z,56.72
2022-12-08T10:18:34.905Z,57.34
2022-12-08T10:21:27.120Z,57.10
2022-12-08T10:24:05.942Z,56.96
2022-12-08T10:26:32.629Z,55.70
2022-12-08T10:29:02.197Z,55.63
2022-12-08T10:31:31.397Z,54.58
2022-12-08T10:34:22.136Z,53.37
2022-12-08T10:36:59.392Z,55.75
2022-12-08T10:39:30.314Z,54.25
2022-12-08T10:42:19.044Z,56.04
2022-12-08T10:44:54.190Z,57.52
2022-12-08T10:47:24.251Z,57.75
2022-12-08T10:50:21.719Z,57.18
2022-12-08T10:52:59.955Z,55.21
2022-12-08T10:55:42.742Z,55.38
2022-12-08T10:58:31.796Z,54.99
2022-12-08T11:01:28.931Z,54.71
2022-12-08T11:04:00.184Z,55.13
2022-12-08T11:06:37.013Z,55.39
2022-12-08T11:09:21.960Z,58.86
2022-12-08T11:11:52.595Z,56.03
2022-12-08T11:14:24.700Z,56.37
2022-12-08T11:17:25.134Z,54.55
2022-12-08T11:20:24.408Z,56.07
2022-12-08T11:22:54.776Z,57.34
2022-12-08T11:25:27.401Z,57.99
2022-12-08T11:27:58.540Z,58.03
2022-12-08T11:30:32.036Z,58.57
2022-12-08T11:33:06.844Z,58.09
2022-12-08T11:35:47.795Z,60.08
2022-12-08T11:38:22.693Z,59.53
2022-12-08T11:41:10.835Z,58.14
2022-12-08T11:43:40.851Z,56.58
2022-12-08T11:46:40.414Z,58.10
2022-12-08T11:49:15.477Z,56.59
2022-12-08T11:52:02.531Z,57.21
2022-12-08T11:55:04.428Z,56.57
2022-12-08T11:57:31.159Z,57.02
2022-12-08T12:00:00.891Z,56.84
2022-12-08T12:02:32.065Z,59.33
2022-12-08T12:05:10.928Z,60.21
2022-12-08T12:08:10.296Z,58.36
2022-12-08T12:11:16.228Z,59.29
2022-12-08T12:14:13.922Z,59.54
2022-12-08T12:16:52.943Z,58.34
2022-12-08T12:19:24.105Z,56.24
2022-12-08T12:21:56.227Z,55.42
2022-12-08T12:24:35.614Z,55.82
2022-12-08T12:27:07.925Z,57.32
2022-12-08T12:29:38.902Z,57.92
2022-12-08T12:32:11.695Z,58.23
2022-12-08T12:34:55.896Z,60.34
2022-12-08T12:37:42.973Z,57.77
2022-12-08T12:40:22.145Z,55.31
2022-12-08T12:43:08.655Z,55.97
2022-12-08T12:45:36.963Z,58.15
2022-12-08T12:48:03.524Z,56.80
2022-12-08T12:50:33.228Z,57.33
2022-12-08T12:53:20.153Z,57.15
2022-12-08T12:55:54.979Z,54.78
2022-12-08T12:58:34.842Z,53.99
2022-12-08T13:01:10.658Z,54.24
2022-12-08T13:03:39.920Z,54.06
2022-12-08T13:06:14.156Z,52.95
2022-12-08T13:08:52.687Z,53.11
2022-12-08T13:11:21.035Z,53.82
2022-12-08T13:14:00.487Z,54.93
2022-12-08T13:16:33.703Z,53.10
2022-12-08T13:19:05.680Z,55.32
2022-12-08T13:21:36.856Z,55.83
2022-12-08T13:24:34.119Z,55.20
2022-12-08T13:27:03.427Z,55.13
2022-12-08T13:29:31.711Z,55.45
2022-12-08T13:32:24.360Z,56.40
2022-12-08T13:35:00.651Z,56.86
2022-12-08T13:37:30.241Z,57.47
2022-12-08T13:40:04.039Z,55.84
2022-12-08T13:42:40.036Z,56.61
2022-12-08T13:45:33.468Z,55.01
2022-12-08T13:48:35.144Z,54.16
2022-12-08T13:57:10.106Z,54.80
2022-12-08T13:59:44.601Z,57.07
2022-12-08T14:02:45.301Z,55.33
2022-12-08T14:05:19.578Z,52.48
2022-12-08T14:07:53.215Z,53.66
2022-12-08T14:10:25.886Z,51.80
2022-12-08T14:12:59.373Z,51.10
2022-12-08T14:15:26.562Z,51.84
2022-12-08T14:17:57.579Z,52.48
2022-12-08T14:20:52.001Z,52.69
2022-12-08T14:23:20.686Z,52.77
2022-12-08T14:25:48.507Z,54.65
2022-12-08T14:28:15.277Z,54.30
2022-12-08T14:30:42.604Z,53.94
2022-12-08T14:33:16.267Z,53.51
2022-12-08T14:35:42.953Z,53.57
2022-12-08T14:38:17.934Z,54.34
2022-12-08T14:40:45.643Z,53.57
2022-12-08T14:43:19.559Z,53.30
2022-12-08T14:45:46.133Z,52.76
2022-12-08T14:48:26.669Z,52.12
2022-12-08T14:51:16.451Z,52.66
2022-12-08T14:53:57.965Z,52.29
2022-12-08T14:56:38.618Z,52.08
2022-12-08T14:59:37.715Z,51.96
2022-12-08T15:02:16.563Z,51.80
2022-12-08T15:04:47.943Z,51.57
2022-12-08T15:07:19.050Z,52.21
2022-12-08T15:10:10.682Z,52.86
2022-12-08T15:12:37.624Z,52.15
2022-12-08T15:15:10.277Z,52.97
2022-12-08T15:17:50.063Z,53.22
2022-12-08T15:20:44.414Z,51.78
2022-12-08T15:23:39.284Z,50.81
2022-12-08T15:26:06.148Z,50.10
2022-12-08T15:28:32.940Z,50.70
2022-12-08T15:30:59.655Z,50.93
2022-12-08T15:33:27.180Z,51.25
2022-12-08T15:35:53.957Z,51.53
2022-12-08T15:38:29.103Z,51.61
2022-12-08T15:40:57.648Z,52.23
2022-12-08T15:43:24.347Z,52.67
2022-12-08T15:45:59.172Z,53.80
2022-12-08T15:48:29.946Z,53.24
2022-12-08T15:50:57.943Z,53.35
2022-12-08T15:53:25.133Z,53.86
2022-12-08T15:58:55.580Z,54.11
2022-12-08T16:01:23.984Z,54.05
2022-12-08T16:09:30.820Z,55.53
2022-12-08T16:12:06.559Z,55.61
2022-12-08T16:17:21.488Z,54.93
2022-12-08T16:19:48.195Z,54.94
2022-12-08T16:25:18.885Z,55.34
2022-12-08T16:28:01.456Z,55.54
2022-12-08T16:30:33.205Z,55.53
2022-12-08T16:32:59.840Z,54.71
2022-12-08T16:35:26.460Z,55.60
2022-12-08T16:37:53.119Z,55.81
2022-12-08T16:40:20.003Z,56.04
2022-12-08T16:42:46.663Z,55.44
2022-12-08T16:45:16.689Z,55.56
2022-12-08T16:47:49.991Z,55.71
2022-12-08T16:50:28.897Z,55.63
2022-12-08T16:52:59.066Z,56.02
2022-12-08T16:55:26.365Z,55.61
2022-12-08T16:57:54.318Z,57.19
2022-12-08T17:00:24.228Z,57.73
2022-12-08T17:02:52.018Z,57.22
2022-12-08T17:05:22.565Z,57.67
2022-12-08T17:07:52.271Z,57.33
2022-12-08T17:10:22.563Z,57.88
2022-12-08T17:12:49.930Z,56.81
2022-12-08T17:15:19.379Z,56.43
2022-12-08T17:17:46.296Z,55.72
2022-12-08T17:20:16.161Z,58.17
2022-12-08T17:22:44.944Z,58.61
2022-12-08T17:25:12.241Z,59.50
2022-12-08T17:27:39.832Z,61.57
2022-12-08T17:30:09.695Z,59.69
2022-12-08T17:32:38.613Z,59.01
2022-12-08T17:35:06.763Z,60.66
2022-12-08T17:37:34.419Z,61.16
2022-12-08T17:40:01.882Z,59.96
2022-12-08T17:42:28.714Z,60.23
2022-12-08T17:44:55.750Z,59.09
2022-12-08T17:47:22.603Z,60.25
2022-12-08T17:49:49.384Z,60.07
2022-12-08T17:52:16.124Z,60.07
2022-12-08T17:54:43.859Z,60.09
2022-12-08T17:57:10.650Z,59.20
2022-12-08T17:59:37.444Z,58.65
2022-12-08T18:02:04.274Z,59.76
2022-12-08T18:04:31.551Z,59.84
2022-12-08T18:06:58.448Z,58.21
2022-12-08T18:09:26.244Z,59.64
2022-12-08T18:11:53.132Z,59.02
2022-12-08T18:14:20.134Z,61.75
2022-12-08T18:16:47.626Z,64.06
2022-12-08T18:19:15.695Z,63.13
2022-12-08T18:21:43.145Z,61.19
2022-12-08T18:24:18.190Z,61.33
2022-12-08T18:26:45.313Z,60.91
2022-12-08T18:29:13.255Z,60.57
2022-12-08T18:31:40.035Z,60.23
2022-12-08T18:34:06.633Z,61.64
2022-12-08T18:36:33.582Z,62.18
2022-12-08T18:39:01.058Z,63.63
2022-12-08T18:41:30.073Z,63.83
2022-12-08T18:43:57.152Z,64.66
2022-12-08T18:46:25.907Z,65.03
2022-12-08T18:48:53.250Z,65.78
2022-12-08T18:51:23.603Z,63.50
2022-12-08T18:53:50.470Z,61.30
2022-12-08T18:56:26.967Z,60.47
2022-12-08T18:58:59.866Z,59.48
2022-12-08T19:01:30.041Z,60.18
2022-12-08T19:04:26.858Z,61.95
2022-12-08T19:06:45.511Z,63.44
2022-12-08T19:09:12.787Z,63.71
2022-12-08T19:11:39.574Z,62.82
2022-12-08T19:14:07.444Z,63.03
2022-12-08T19:16:35.062Z,62.15
2022-12-08T19:19:01.953Z,62.38
2022-12-08T19:21:29.036Z,61.83
2022-12-08T19:23:56.376Z,61.91
2022-12-08T19:26:23.128Z,59.98
2022-12-08T19:28:49.825Z,59.35
2022-12-08T19:31:16.600Z,57.44
2022-12-08T19:33:43.394Z,57.30
2022-12-08T19:36:16.090Z,58.45
2022-12-08T19:38:46.861Z,59.41
2022-12-08T19:41:13.735Z,59.83
2022-12-08T19:43:40.359Z,57.92
2022-12-08T19:46:08.500Z,57.08
2022-12-08T19:48:35.249Z,56.65
2022-12-08T19:51:01.941Z,56.05
2022-12-08T19:53:28.613Z,56.83
2022-12-08T19:55:55.855Z,57.29
2022-12-08T19:58:22.566Z,58.29
2022-12-08T20:00:49.661Z,59.02
2022-12-08T20:03:20.248Z,62.04
2022-12-08T20:05:49.601Z,62.28
2022-12-08T20:08:17.800Z,61.57
2022-12-08T20:10:45.064Z,60.77
2022-12-08T20:13:12.696Z,60.67
2022-12-08T20:15:39.541Z,60.18
2022-12-08T20:18:06.633Z,58.30
2022-12-08T20:20:33.338Z,58.60
2022-12-08T20:23:00.046Z,57.51
2022-12-08T20:25:26.758Z,60.69
2022-12-08T20:27:53.726Z,61.90
2022-12-08T20:30:20.489Z,62.29
2022-12-08T20:32:47.219Z,61.29
2022-12-08T20:35:15.835Z,61.44
2022-12-08T20:37:42.814Z,60.51
2022-12-08T20:40:09.841Z,60.51
2022-12-08T20:42:36.484Z,60.54
2022-12-08T20:45:03.372Z,61.53
2022-12-08T20:47:30.213Z,63.67
2022-12-08T20:49:57.046Z,64.54
2022-12-08T20:52:23.866Z,64.57
2022-12-08T20:54:50.747Z,62.26
2022-12-08T20:57:17.737Z,59.75
2022-12-08T20:59:44.419Z,59.33
2022-12-08T21:02:11.720Z,58.59
2022-12-08T21:04:38.538Z,57.29
2022-12-08T21:07:05.536Z,56.97
2022-12-08T21:09:32.383Z,56.35
2022-12-08T21:11:59.221Z,55.78
2022-12-08T21:14:26.128Z,55.13
2022-12-08T21:16:55.109Z,53.89
2022-12-08T21:19:24.989Z,53.90
2022-12-08T21:21:51.928Z,54.20
2022-12-08T21:24:19.090Z,53.16
2022-12-08T21:26:46.004Z,52.08
2022-12-08T21:29:13.703Z,53.34
2022-12-08T21:31:40.670Z,53.13
2022-12-08T21:34:07.431Z,52.91
2022-12-08T21:36:34.427Z,52.80
2022-12-08T21:39:01.199Z,53.53
2022-12-08T21:41:28.645Z,56.68
2022-12-08T21:43:55.377Z,58.25
2022-12-08T21:46:22.330Z,60.83
2022-12-08T21:48:49.254Z,62.50
2022-12-08T21:51:16.046Z,62.66
2022-12-08T21:53:42.734Z,60.09
2022-12-08T21:56:09.864Z,60.54
2022-12-08T21:58:36.681Z,59.76
2022-12-08T22:01:08.444Z,59.89
2022-12-08T22:03:36.713Z,59.63
2022-12-08T22:06:05.486Z,58.40
2022-12-08T22:08:32.351Z,59.46
2022-12-08T22:10:59.550Z,60.35
2022-12-08T22:13:26.913Z,59.79
2022-12-08T22:16:02.684Z,60.28
2022-12-08T22:18:29.819Z,59.38
2022-12-08T22:20:56.852Z,58.91
2022-12-08T22:23:24.243Z,57.94
2022-12-08T22:26:02.096Z,59.65
2022-12-08T22:28:32.806Z,59.94
2022-12-08T22:30:59.907Z,59.63
2022-12-08T22:33:29.218Z,59.66
2022-12-08T22:36:08.153Z,59.85
2022-12-08T22:38:37.359Z,59.58
2022-12-08T22:41:05.609Z,58.81
2022-12-08T22:43:33.481Z,59.36
2022-12-08T22:46:00.708Z,59.53
2022-12-08T22:48:27.511Z,60.19
2022-12-08T22:51:00.699Z,59.63
2022-12-08T22:53:30.420Z,59.52
2022-12-08T22:55:57.028Z,59.31
2022-12-08T22:58:24.333Z,60.27
2022-12-08T23:00:51.043Z,60.45
2022-12-08T23:03:17.789Z,60.46
2022-12-08T23:05:46.047Z,61.33
2022-12-08T23:08:15.469Z,62.94
2022-12-08T23:10:43.152Z,66.07
2022-12-08T23:13:10.692Z,68.76
2022-12-08T23:15:38.375Z,67.55
2022-12-08T23:18:06.304Z,67.66
2022-12-08T23:20:35.075Z,67.02
2022-12-08T23:23:01.775Z,67.55
2022-12-08T23:25:28.597Z,66.59
2022-12-08T23:27:55.243Z,68.80
2022-12-08T23:30:24.013Z,66.69
2022-12-08T23:32:54.008Z,65.35
2022-12-08T23:35:20.887Z,64.65
2022-12-08T23:37:47.861Z,64.28
2022-12-08T23:40:14.582Z,63.75
2022-12-08T23:42:41.535Z,63.85
2022-12-08T23:45:08.866Z,62.75
2022-12-08T23:47:35.987Z,62.00
2022-12-08T23:50:03.680Z,63.46
2022-12-08T23:52:30.827Z,63.39
2022-12-08T23:54:57.572Z,64.52
2022-12-08T23:57:24.362Z,64.94
2022-12-08T23:59:51.105Z,64.61
